sensor_id;sensor_type;location;lat;lon;timestamp;pressure;altitude;pressure_sealevel;temperature;humidity
55466;BME280;41329;41.594;23.810;2023-04-20T00:01:37;94903.72;;;11.27;75.67
55466;BME280;41329;41.594;23.810;2023-04-20T00:04:03;94901.34;;;11.29;75.50
55466;BME280;41329;41.594;23.810;2023-04-20T00:06:28;94902.16;;;11.29;75.23
55466;BME280;41329;41.594;23.810;2023-04-20T00:08:55;94898.56;;;11.25;75.15
55466;BME280;41329;41.594;23.810;2023-04-20T00:11:20;94898.19;;;11.27;74.72
55466;BME280;41329;41.594;23.810;2023-04-20T00:13:46;94898.59;;;11.29;74.90
55466;BME280;41329;41.594;23.810;2023-04-20T00:16:11;94898.19;;;11.30;75.25
55466;BME280;41329;41.594;23.810;2023-04-20T00:18:37;94873.22;;;11.20;75.17
55466;BME280;41329;41.594;23.810;2023-04-20T00:21:05;94876.41;;;11.22;75.21
55466;BME280;41329;41.594;23.810;2023-04-20T00:23:31;94895.81;;;11.29;75.13
55466;BME280;41329;41.594;23.810;2023-04-20T00:25:56;94894.19;;;11.21;75.36
55466;BME280;41329;41.594;23.810;2023-04-20T00:28:21;94886.28;;;11.23;75.42
55466;BME280;41329;41.594;23.810;2023-04-20T00:30:47;94867.28;;;11.18;75.29
55466;BME280;41329;41.594;23.810;2023-04-20T00:33:12;94883.59;;;11.30;75.38
55466;BME280;41329;41.594;23.810;2023-04-20T00:35:38;94822.03;;;10.93;74.96
55466;BME280;41329;41.594;23.810;2023-04-20T00:38:03;94880.41;;;11.31;74.82
55466;BME280;41329;41.594;23.810;2023-04-20T00:40:29;94878.44;;;11.32;74.81
55466;BME280;41329;41.594;23.810;2023-04-20T00:42:54;94870.50;;;11.30;74.61
55466;BME280;41329;41.594;23.810;2023-04-20T00:45:20;94856.22;;;11.21;74.29
55466;BME280;41329;41.594;23.810;2023-04-20T00:47:46;94847.88;;;11.14;74.26
55466;BME280;41329;41.594;23.810;2023-04-20T00:50:12;94862.16;;;11.23;74.14
55466;BME280;41329;41.594;23.810;2023-04-20T00:52:38;94836.34;;;11.05;73.63
55466;BME280;41329;41.594;23.810;2023-04-20T00:55:05;94858.16;;;11.17;73.44
55466;BME280;41329;41.594;23.810;2023-04-20T00:57:31;94862.91;;;11.17;72.88
55466;BME280;41329;41.594;23.810;2023-04-20T00:59:57;94858.53;;;11.09;72.93
55466;BME280;41329;41.594;23.810;2023-04-20T01:02:22;94861.69;;;11.07;72.78
55466;BME280;41329;41.594;23.810;2023-04-20T01:04:48;94864.00;;;11.02;72.65
55466;BME280;41329;41.594;23.810;2023-04-20T01:07:13;94865.16;;;10.97;72.46
55466;BME280;41329;41.594;23.810;2023-04-20T01:09:39;94863.13;;;10.87;72.33
55466;BME280;41329;41.594;23.810;2023-04-20T01:12:05;94871.41;;;10.84;72.25
55466;BME280;41329;41.594;23.810;2023-04-20T01:14:31;94853.47;;;10.67;72.03
55466;BME280;41329;41.594;23.810;2023-04-20T01:16:56;94864.53;;;10.67;72.23
55466;BME280;41329;41.594;23.810;2023-04-20T01:19:22;94865.72;;;10.63;72.15
55466;BME280;41329;41.594;23.810;2023-04-20T01:21:48;94877.09;;;10.58;72.13
55466;BME280;41329;41.594;23.810;2023-04-20T01:24:13;94865.19;;;10.50;72.55
55466;BME280;41329;41.594;23.810;2023-04-20T01:26:39;94845.28;;;10.31;72.61
55466;BME280;41329;41.594;23.810;2023-04-20T01:29:04;94853.56;;;10.27;72.74
55466;BME280;41329;41.594;23.810;2023-04-20T01:31:30;94840.41;;;10.17;73.11
55466;BME280;41329;41.594;23.810;2023-04-20T01:33:55;94843.97;;;10.18;73.29
55466;BME280;41329;41.594;23.810;2023-04-20T01:36:21;94847.34;;;10.04;73.70
55466;BME280;41329;41.594;23.810;2023-04-20T01:38:47;94841.34;;;9.95;73.74
55466;BME280;41329;41.594;23.810;2023-04-20T01:41:12;94844.84;;;9.92;74.03
55466;BME280;41329;41.594;23.810;2023-04-20T01:43:38;94835.75;;;9.88;73.84
55466;BME280;41329;41.594;23.810;2023-04-20T01:46:04;94841.31;;;9.92;73.86
55466;BME280;41329;41.594;23.810;2023-04-20T01:48:30;94844.00;;;9.85;73.74
55466;BME280;41329;41.594;23.810;2023-04-20T01:50:56;94837.25;;;9.79;73.92
55466;BME280;41329;41.594;23.810;2023-04-20T01:53:22;94831.63;;;9.72;74.18
55466;BME280;41329;41.594;23.810;2023-04-20T01:55:49;94821.66;;;9.64;74.46
55466;BME280;41329;41.594;23.810;2023-04-20T01:58:15;94849.03;;;9.76;74.35
55466;BME280;41329;41.594;23.810;2023-04-20T02:00:40;94835.44;;;9.60;74.31
55466;BME280;41329;41.594;23.810;2023-04-20T02:03:06;94844.94;;;9.63;74.13
55466;BME280;41329;41.594;23.810;2023-04-20T02:05:31;94837.28;;;9.49;73.80
55466;BME280;41329;41.594;23.810;2023-04-20T02:07:57;94833.81;;;9.56;72.94
55466;BME280;41329;41.594;23.810;2023-04-20T02:10:22;94824.88;;;9.33;73.07
55466;BME280;41329;41.594;23.810;2023-04-20T02:12:48;94842.28;;;9.37;73.14
55466;BME280;41329;41.594;23.810;2023-04-20T02:15:14;94833.00;;;9.22;73.20
55466;BME280;41329;41.594;23.810;2023-04-20T02:17:40;94847.59;;;9.23;73.41
55466;BME280;41329;41.594;23.810;2023-04-20T02:20:06;94835.91;;;9.03;73.88
55466;BME280;41329;41.594;23.810;2023-04-20T02:22:33;94854.56;;;9.13;74.34
55466;BME280;41329;41.594;23.810;2023-04-20T02:25:04;94857.41;;;9.20;74.82
55466;BME280;41329;41.594;23.810;2023-04-20T02:27:30;94852.72;;;9.21;74.99
55466;BME280;41329;41.594;23.810;2023-04-20T02:29:56;94858.69;;;9.26;74.79
55466;BME280;41329;41.594;23.810;2023-04-20T02:32:22;94854.81;;;9.31;74.76
55466;BME280;41329;41.594;23.810;2023-04-20T02:34:47;94837.75;;;9.25;74.73
55466;BME280;41329;41.594;23.810;2023-04-20T02:37:13;94848.47;;;9.30;74.73
55466;BME280;41329;41.594;23.810;2023-04-20T02:39:38;94842.41;;;9.18;74.71
55466;BME280;41329;41.594;23.810;2023-04-20T02:42:04;94852.75;;;9.24;74.83
55466;BME280;41329;41.594;23.810;2023-04-20T02:44:30;94846.84;;;9.26;74.74
55466;BME280;41329;41.594;23.810;2023-04-20T02:46:55;94851.22;;;9.30;74.97
55466;BME280;41329;41.594;23.810;2023-04-20T02:49:21;94848.16;;;9.35;75.35
55466;BME280;41329;41.594;23.810;2023-04-20T02:51:46;94852.13;;;9.38;75.64
55466;BME280;41329;41.594;23.810;2023-04-20T02:54:12;94836.19;;;9.24;75.79
55466;BME280;41329;41.594;23.810;2023-04-20T02:56:37;94864.03;;;9.42;76.16
55466;BME280;41329;41.594;23.810;2023-04-20T02:59:03;94853.38;;;9.44;75.96
55466;BME280;41329;41.594;23.810;2023-04-20T03:01:28;94858.44;;;9.38;75.97
55466;BME280;41329;41.594;23.810;2023-04-20T03:03:54;94856.22;;;9.47;75.83
55466;BME280;41329;41.594;23.810;2023-04-20T03:06:19;94859.38;;;9.49;75.92
55466;BME280;41329;41.594;23.810;2023-04-20T03:08:45;94848.66;;;9.44;76.01
55466;BME280;41329;41.594;23.810;2023-04-20T03:11:11;94853.03;;;9.49;76.09
55466;BME280;41329;41.594;23.810;2023-04-20T03:13:36;94860.97;;;9.50;76.24
55466;BME280;41329;41.594;23.810;2023-04-20T03:16:02;94854.66;;;9.50;76.34
55466;BME280;41329;41.594;23.810;2023-04-20T03:18:29;94855.88;;;9.52;76.35
55466;BME280;41329;41.594;23.810;2023-04-20T03:20:54;94860.22;;;9.53;76.32
55466;BME280;41329;41.594;23.810;2023-04-20T03:23:20;94859.09;;;9.58;76.60
55466;BME280;41329;41.594;23.810;2023-04-20T03:25:46;94847.97;;;9.51;76.78
55466;BME280;41329;41.594;23.810;2023-04-20T03:28:12;94860.72;;;9.62;76.84
55466;BME280;41329;41.594;23.810;2023-04-20T03:30:37;94863.84;;;9.61;76.90
55466;BME280;41329;41.594;23.810;2023-04-20T03:33:03;94863.84;;;9.61;76.83
55466;BME280;41329;41.594;23.810;2023-04-20T03:35:28;94856.97;;;9.48;76.38
55466;BME280;41329;41.594;23.810;2023-04-20T03:37:54;94856.09;;;9.40;76.42
55466;BME280;41329;41.594;23.810;2023-04-20T03:40:19;94870.78;;;9.48;76.38
55466;BME280;41329;41.594;23.810;2023-04-20T03:42:45;94846.63;;;9.38;76.25
55466;BME280;41329;41.594;23.810;2023-04-20T03:45:11;94866.53;;;9.54;75.79
55466;BME280;41329;41.594;23.810;2023-04-20T03:47:36;94873.97;;;9.50;75.94
55466;BME280;41329;41.594;23.810;2023-04-20T03:50:02;94872.47;;;9.56;76.19
55466;BME280;41329;41.594;23.810;2023-04-20T03:52:28;94870.06;;;9.54;76.27
55466;BME280;41329;41.594;23.810;2023-04-20T03:54:53;94872.09;;;9.57;76.25
55466;BME280;41329;41.594;23.810;2023-04-20T03:57:19;94869.34;;;9.57;76.68
55466;BME280;41329;41.594;23.810;2023-04-20T03:59:44;94852.63;;;9.47;76.72
55466;BME280;41329;41.594;23.810;2023-04-20T04:02:10;94869.72;;;9.56;76.78
55466;BME280;41329;41.594;23.810;2023-04-20T04:04:37;94863.81;;;9.57;76.54
55466;BME280;41329;41.594;23.810;2023-04-20T04:07:02;94881.94;;;9.55;76.26
55466;BME280;41329;41.594;23.810;2023-04-20T04:09:28;94870.06;;;9.54;76.23
55466;BME280;41329;41.594;23.810;2023-04-20T04:11:53;94877.91;;;9.49;76.32
55466;BME280;41329;41.594;23.810;2023-04-20T04:14:19;94866.00;;;9.45;76.45
55466;BME280;41329;41.594;23.810;2023-04-20T04:16:44;94887.03;;;9.53;76.60
55466;BME280;41329;41.594;23.810;2023-04-20T04:19:10;94887.88;;;9.57;76.58
55466;BME280;41329;41.594;23.810;2023-04-20T04:21:36;94886.72;;;9.58;76.50
55466;BME280;41329;41.594;23.810;2023-04-20T04:24:01;94883.63;;;9.63;76.40
55466;BME280;41329;41.594;23.810;2023-04-20T04:26:28;94880.88;;;9.66;76.80
55466;BME280;41329;41.594;23.810;2023-04-20T04:28:56;94877.38;;;9.69;76.78
55466;BME280;41329;41.594;23.810;2023-04-20T04:31:22;94890.47;;;9.76;76.99
55466;BME280;41329;41.594;23.810;2023-04-20T04:33:48;94879.47;;;9.79;77.13
55466;BME280;41329;41.594;23.810;2023-04-20T04:36:14;94875.06;;;9.75;77.35
55466;BME280;41329;41.594;23.810;2023-04-20T04:38:42;94837.31;;;9.53;77.02
55466;BME280;41329;41.594;23.810;2023-04-20T04:41:09;94882.25;;;9.83;76.80
55466;BME280;41329;41.594;23.810;2023-04-20T04:43:40;94882.09;;;9.69;76.76
55466;BME280;41329;41.594;23.810;2023-04-20T04:46:09;94898.25;;;9.67;76.08
55466;BME280;41329;41.594;23.810;2023-04-20T04:48:39;94905.94;;;9.51;75.55
55466;BME280;41329;41.594;23.810;2023-04-20T04:51:07;94904.59;;;9.38;75.66
55466;BME280;41329;41.594;23.810;2023-04-20T04:53:32;94919.56;;;9.37;76.03
55466;BME280;41329;41.594;23.810;2023-04-20T04:55:57;94908.56;;;9.40;75.92
55466;BME280;41329;41.594;23.810;2023-04-20T04:58:23;94918.03;;;9.39;75.97
55466;BME280;41329;41.594;23.810;2023-04-20T05:00:49;94903.53;;;9.20;75.96
55466;BME280;41329;41.594;23.810;2023-04-20T05:03:14;94922.47;;;9.21;76.54
55466;BME280;41329;41.594;23.810;2023-04-20T05:05:40;94916.41;;;8.83;78.45
55466;BME280;41329;41.594;23.810;2023-04-20T05:08:05;94929.56;;;8.93;78.49
55466;BME280;41329;41.594;23.810;2023-04-20T05:10:31;94901.66;;;8.98;78.87
55466;BME280;41329;41.594;23.810;2023-04-20T05:12:56;94924.69;;;9.09;78.98
55466;BME280;41329;41.594;23.810;2023-04-20T05:15:25;94919.41;;;9.00;79.21
55466;BME280;41329;41.594;23.810;2023-04-20T05:17:51;94900.19;;;9.04;79.69
55466;BME280;41329;41.594;23.810;2023-04-20T05:20:17;94914.50;;;8.87;80.10
55466;BME280;41329;41.594;23.810;2023-04-20T05:22:42;94907.53;;;8.96;80.54
55466;BME280;41329;41.594;23.810;2023-04-20T05:25:08;94900.75;;;8.90;80.75
55466;BME280;41329;41.594;23.810;2023-04-20T05:27:34;94915.88;;;9.00;80.86
55466;BME280;41329;41.594;23.810;2023-04-20T05:29:59;94913.38;;;8.91;81.40
55466;BME280;41329;41.594;23.810;2023-04-20T05:32:25;94918.72;;;8.81;81.81
55466;BME280;41329;41.594;23.810;2023-04-20T05:34:50;94921.94;;;8.83;81.83
55466;BME280;41329;41.594;23.810;2023-04-20T05:37:16;94911.34;;;8.88;82.12
55466;BME280;41329;41.594;23.810;2023-04-20T05:39:41;94900.53;;;8.76;82.75
55466;BME280;41329;41.594;23.810;2023-04-20T05:42:07;94916.88;;;8.88;82.95
55466;BME280;41329;41.594;23.810;2023-04-20T05:44:32;94921.59;;;9.14;82.61
55466;BME280;41329;41.594;23.810;2023-04-20T05:47:00;94918.63;;;9.26;82.18
55466;BME280;41329;41.594;23.810;2023-04-20T05:49:27;94906.91;;;9.36;81.78
55466;BME280;41329;41.594;23.810;2023-04-20T05:51:52;94908.72;;;9.51;81.62
55466;BME280;41329;41.594;23.810;2023-04-20T05:54:18;94887.13;;;9.60;81.40
55466;BME280;41329;41.594;23.810;2023-04-20T05:56:43;94911.53;;;9.87;81.62
55466;BME280;41329;41.594;23.810;2023-04-20T05:59:09;94894.13;;;9.87;81.60
55466;BME280;41329;41.594;23.810;2023-04-20T06:01:34;94901.06;;;10.03;81.61
55466;BME280;41329;41.594;23.810;2023-04-20T06:03:59;94904.31;;;10.09;80.54
55466;BME280;41329;41.594;23.810;2023-04-20T06:06:25;94899.25;;;10.18;80.15
55466;BME280;41329;41.594;23.810;2023-04-20T06:08:50;94909.13;;;10.15;79.85
55466;BME280;41329;41.594;23.810;2023-04-20T06:11:16;94903.69;;;10.26;79.32
55466;BME280;41329;41.594;23.810;2023-04-20T06:13:42;94896.97;;;10.23;79.48
55466;BME280;41329;41.594;23.810;2023-04-20T06:16:07;94903.34;;;10.31;79.04
55466;BME280;41329;41.594;23.810;2023-04-20T06:18:35;94908.16;;;10.04;78.73
55466;BME280;41329;41.594;23.810;2023-04-20T06:21:02;94911.25;;;9.96;79.30
55466;BME280;41329;41.594;23.810;2023-04-20T06:23:27;94893.03;;;9.95;79.72
55466;BME280;41329;41.594;23.810;2023-04-20T06:25:53;94891.91;;;9.96;79.69
55466;BME280;41329;41.594;23.810;2023-04-20T06:28:18;94902.13;;;9.92;79.68
55466;BME280;41329;41.594;23.810;2023-04-20T06:30:44;94911.50;;;9.84;79.96
55466;BME280;41329;41.594;23.810;2023-04-20T06:33:09;94920.81;;;10.05;79.61
55466;BME280;41329;41.594;23.810;2023-04-20T06:35:41;94914.88;;;10.03;78.86
55466;BME280;41329;41.594;23.810;2023-04-20T06:38:06;94922.72;;;10.01;79.61
55466;BME280;41329;41.594;23.810;2023-04-20T06:40:32;94924.09;;;10.14;78.58
55466;BME280;41329;41.594;23.810;2023-04-20T06:42:57;94900.84;;;10.19;78.44
55466;BME280;41329;41.594;23.810;2023-04-20T06:45:22;94917.06;;;10.20;78.52
55466;BME280;41329;41.594;23.810;2023-04-20T06:47:48;94919.38;;;10.18;78.22
55466;BME280;41329;41.594;23.810;2023-04-20T06:50:13;94921.47;;;10.25;78.19
55466;BME280;41329;41.594;23.810;2023-04-20T06:52:39;94917.34;;;10.12;77.53
55466;BME280;41329;41.594;23.810;2023-04-20T06:55:06;94865.72;;;9.86;77.79
55466;BME280;41329;41.594;23.810;2023-04-20T06:57:32;94924.00;;;10.44;78.21
55466;BME280;41329;41.594;23.810;2023-04-20T06:59:57;94906.97;;;10.38;77.56
55466;BME280;41329;41.594;23.810;2023-04-20T07:02:26;94911.00;;;10.44;76.71
55466;BME280;41329;41.594;23.810;2023-04-20T07:04:51;94936.47;;;10.67;76.92
55466;BME280;41329;41.594;23.810;2023-04-20T07:07:17;94926.66;;;10.73;77.53
55466;BME280;41329;41.594;23.810;2023-04-20T07:09:42;94919.97;;;10.78;77.61
55466;BME280;41329;41.594;23.810;2023-04-20T07:12:08;94933.91;;;10.92;77.58
55466;BME280;41329;41.594;23.810;2023-04-20T07:14:35;94915.84;;;11.05;78.35
55466;BME280;41329;41.594;23.810;2023-04-20T07:17:01;94923.50;;;11.25;76.59
55466;BME280;41329;41.594;23.810;2023-04-20T07:19:26;94930.19;;;11.21;75.16
55466;BME280;41329;41.594;23.810;2023-04-20T07:21:52;94920.72;;;11.25;76.00
55466;BME280;41329;41.594;23.810;2023-04-20T07:24:17;94928.41;;;11.53;76.52
55466;BME280;41329;41.594;23.810;2023-04-20T07:26:43;94924.97;;;11.70;75.76
55466;BME280;41329;41.594;23.810;2023-04-20T07:29:08;94930.63;;;11.91;76.44
55466;BME280;41329;41.594;23.810;2023-04-20T07:31:34;94916.41;;;12.03;75.51
55466;BME280;41329;41.594;23.810;2023-04-20T07:33:59;94928.75;;;12.30;76.43
55466;BME280;41329;41.594;23.810;2023-04-20T07:36:25;94920.50;;;12.51;75.60
55466;BME280;41329;41.594;23.810;2023-04-20T07:38:52;94916.56;;;12.63;71.50
55466;BME280;41329;41.594;23.810;2023-04-20T07:41:17;94914.16;;;12.65;69.30
55466;BME280;41329;41.594;23.810;2023-04-20T07:43:42;94921.31;;;12.73;70.68
55466;BME280;41329;41.594;23.810;2023-04-20T07:46:09;94911.03;;;12.84;69.32
55466;BME280;41329;41.594;23.810;2023-04-20T07:48:34;94904.69;;;12.94;69.96
55466;BME280;41329;41.594;23.810;2023-04-20T07:51:00;94911.84;;;13.02;70.05
55466;BME280;41329;41.594;23.810;2023-04-20T07:53:27;94912.22;;;12.86;69.13
55466;BME280;41329;41.594;23.810;2023-04-20T07:55:53;94906.66;;;12.86;67.06
55466;BME280;41329;41.594;23.810;2023-04-20T07:58:18;94873.34;;;12.58;67.15
55466;BME280;41329;41.594;23.810;2023-04-20T08:00:46;94904.69;;;12.69;66.98
55466;BME280;41329;41.594;23.810;2023-04-20T08:03:12;94898.72;;;12.67;68.65
55466;BME280;41329;41.594;23.810;2023-04-20T08:05:38;94867.38;;;12.63;69.20
55466;BME280;41329;41.594;23.810;2023-04-20T08:08:03;94891.16;;;12.96;68.19
55466;BME280;41329;41.594;23.810;2023-04-20T08:10:29;94881.69;;;12.86;68.58
55466;BME280;41329;41.594;23.810;2023-04-20T08:12:54;94880.09;;;12.82;68.60
55466;BME280;41329;41.594;23.810;2023-04-20T08:15:20;94870.56;;;12.83;68.40
55466;BME280;41329;41.594;23.810;2023-04-20T08:17:45;94881.25;;;12.95;67.90
55466;BME280;41329;41.594;23.810;2023-04-20T08:20:10;94851.13;;;12.93;68.43
55466;BME280;41329;41.594;23.810;2023-04-20T08:22:37;94867.78;;;13.04;68.47
55466;BME280;41329;41.594;23.810;2023-04-20T08:25:03;94862.66;;;12.99;68.11
55466;BME280;41329;41.594;23.810;2023-04-20T08:27:28;94863.03;;;12.94;66.85
55466;BME280;41329;41.594;23.810;2023-04-20T08:29:54;94869.38;;;13.01;67.34
55466;BME280;41329;41.594;23.810;2023-04-20T08:32:20;94870.22;;;12.98;65.82
55466;BME280;41329;41.594;23.810;2023-04-20T08:34:48;94858.69;;;12.82;66.03
55466;BME280;41329;41.594;23.810;2023-04-20T08:37:14;94864.59;;;12.84;65.61
55466;BME280;41329;41.594;23.810;2023-04-20T08:39:39;94860.25;;;12.80;66.22
55466;BME280;41329;41.594;23.810;2023-04-20T08:42:05;94859.06;;;12.70;67.87
55466;BME280;41329;41.594;23.810;2023-04-20T08:44:31;94842.44;;;12.77;67.20
55466;BME280;41329;41.594;23.810;2023-04-20T08:46:58;94853.53;;;12.98;67.74
55466;BME280;41329;41.594;23.810;2023-04-20T08:49:26;94864.22;;;13.17;68.07
55466;BME280;41329;41.594;23.810;2023-04-20T08:51:52;94845.56;;;13.21;68.35
55466;BME280;41329;41.594;23.810;2023-04-20T08:54:18;94853.00;;;13.52;69.24
55466;BME280;41329;41.594;23.810;2023-04-20T08:56:45;94851.03;;;13.53;66.87
55466;BME280;41329;41.594;23.810;2023-04-20T08:59:11;94847.81;;;13.68;66.47
55466;BME280;41329;41.594;23.810;2023-04-20T09:01:39;94850.59;;;13.72;65.35
55466;BME280;41329;41.594;23.810;2023-04-20T09:04:22;94843.78;;;13.83;66.62
55466;BME280;41329;41.594;23.810;2023-04-20T09:06:50;94825.47;;;13.93;66.88
55466;BME280;41329;41.594;23.810;2023-04-20T09:09:16;94845.19;;;14.16;66.42
55466;BME280;41329;41.594;23.810;2023-04-20T09:11:43;94842.00;;;14.21;63.54
55466;BME280;41329;41.594;23.810;2023-04-20T09:14:11;94826.84;;;14.29;64.90
55466;BME280;41329;41.594;23.810;2023-04-20T09:16:48;94846.16;;;14.57;66.48
55466;BME280;41329;41.594;23.810;2023-04-20T09:19:14;94822.22;;;14.66;63.36
55466;BME280;41329;41.594;23.810;2023-04-20T09:21:48;94835.94;;;14.91;63.13
55466;BME280;41329;41.594;23.810;2023-04-20T09:24:14;94826.59;;;15.11;63.83
55466;BME280;41329;41.594;23.810;2023-04-20T09:26:40;94824.81;;;15.31;61.35
55466;BME280;41329;41.594;23.810;2023-04-20T09:29:21;94818.00;;;15.32;60.15
55466;BME280;41329;41.594;23.810;2023-04-20T09:31:48;94824.53;;;15.59;60.91
55466;BME280;41329;41.594;23.810;2023-04-20T09:34:14;94826.44;;;15.66;59.29
55466;BME280;41329;41.594;23.810;2023-04-20T09:41:34;94812.00;;;16.04;54.12
55466;BME280;41329;41.594;23.810;2023-04-20T09:44:00;94818.47;;;15.98;51.49
55466;BME280;41329;41.594;23.810;2023-04-20T09:46:31;94808.44;;;16.04;53.05
55466;BME280;41329;41.594;23.810;2023-04-20T09:49:02;94808.16;;;15.95;53.08
55466;BME280;41329;41.594;23.810;2023-04-20T09:51:28;94819.31;;;15.95;52.15
55466;BME280;41329;41.594;23.810;2023-04-20T09:53:59;94806.13;;;15.95;52.17
55466;BME280;41329;41.594;23.810;2023-04-20T09:56:26;94794.72;;;15.86;53.18
55466;BME280;41329;41.594;23.810;2023-04-20T09:58:52;94788.50;;;15.75;53.60
55466;BME280;41329;41.594;23.810;2023-04-20T10:01:18;94807.03;;;15.89;54.47
55466;BME280;41329;41.594;23.810;2023-04-20T10:03:44;94794.09;;;16.02;54.59
55466;BME280;41329;41.594;23.810;2023-04-20T10:06:26;94792.44;;;16.08;52.69
55466;BME280;41329;41.594;23.810;2023-04-20T10:08:52;94799.31;;;16.00;47.98
55466;BME280;41329;41.594;23.810;2023-04-20T10:11:29;94787.28;;;16.06;51.72
55466;BME280;41329;41.594;23.810;2023-04-20T10:14:22;94795.09;;;16.15;48.98
55466;BME280;41329;41.594;23.810;2023-04-20T10:17:00;94779.59;;;16.14;48.61
55466;BME280;41329;41.594;23.810;2023-04-20T10:22:01;94792.47;;;16.34;48.25
55466;BME280;41329;41.594;23.810;2023-04-20T10:24:30;94796.38;;;16.40;48.41
55466;BME280;41329;41.594;23.810;2023-04-20T10:26:57;94795.91;;;16.45;49.43
55466;BME280;41329;41.594;23.810;2023-04-20T10:29:26;94792.41;;;16.38;48.14
55466;BME280;41329;41.594;23.810;2023-04-20T10:31:53;94777.63;;;16.41;48.17
55466;BME280;41329;41.594;23.810;2023-04-20T10:36:55;94797.91;;;16.45;46.71
55466;BME280;41329;41.594;23.810;2023-04-20T10:39:31;94795.59;;;16.36;46.62
55466;BME280;41329;41.594;23.810;2023-04-20T10:41:57;94800.03;;;16.34;46.57
55466;BME280;41329;41.594;23.810;2023-04-20T10:44:26;94802.00;;;16.37;47.65
55466;BME280;41329;41.594;23.810;2023-04-20T10:46:53;94779.44;;;16.24;48.47
55466;BME280;41329;41.594;23.810;2023-04-20T10:49:23;94784.50;;;16.33;50.47
55466;BME280;41329;41.594;23.810;2023-04-20T10:51:51;94799.91;;;16.44;50.53
55466;BME280;41329;41.594;23.810;2023-04-20T10:54:17;94810.44;;;16.60;51.16
55466;BME280;41329;41.594;23.810;2023-04-20T10:56:45;94814.69;;;16.68;50.97
55466;BME280;41329;41.594;23.810;2023-04-20T10:59:16;94807.88;;;16.69;50.93
55466;BME280;41329;41.594;23.810;2023-04-20T11:01:42;94809.91;;;16.68;51.23
55466;BME280;41329;41.594;23.810;2023-04-20T11:04:09;94797.63;;;16.62;49.89
55466;BME280;41329;41.594;23.810;2023-04-20T11:06:36;94809.84;;;16.72;49.33
55466;BME280;41329;41.594;23.810;2023-04-20T11:09:03;94806.97;;;16.75;48.61
55466;BME280;41329;41.594;23.810;2023-04-20T11:11:29;94806.97;;;16.75;49.73
55466;BME280;41329;41.594;23.810;2023-04-20T11:14:08;94811.38;;;16.76;48.19
55466;BME280;41329;41.594;23.810;2023-04-20T11:16:34;94810.81;;;16.85;48.00
55466;BME280;41329;41.594;23.810;2023-04-20T11:19:00;94806.16;;;16.78;48.33
55466;BME280;41329;41.594;23.810;2023-04-20T11:21:38;94803.25;;;16.85;46.97
55466;BME280;41329;41.594;23.810;2023-04-20T11:24:25;94789.59;;;16.91;46.65
55466;BME280;41329;41.594;23.810;2023-04-20T11:26:51;94790.31;;;16.95;45.11
55466;BME280;41329;41.594;23.810;2023-04-20T11:32:01;94743.34;;;16.86;45.12
55466;BME280;41329;41.594;23.810;2023-04-20T11:34:28;94767.94;;;17.18;46.31
55466;BME280;41329;41.594;23.810;2023-04-20T11:36:53;94790.53;;;17.50;47.17
55466;BME280;41329;41.594;23.810;2023-04-20T11:39:27;94782.19;;;17.66;46.09
55466;BME280;41329;41.594;23.810;2023-04-20T11:41:54;94771.72;;;17.70;43.62
55466;BME280;41329;41.594;23.810;2023-04-20T11:44:23;94767.47;;;17.42;42.61
55466;BME280;41329;41.594;23.810;2023-04-20T11:46:50;94778.53;;;17.69;43.64
55466;BME280;41329;41.594;23.810;2023-04-20T11:49:19;94781.22;;;17.76;42.61
55466;BME280;41329;41.594;23.810;2023-04-20T11:51:45;94771.81;;;17.66;41.62
55466;BME280;41329;41.594;23.810;2023-04-20T11:54:12;94763.75;;;17.49;41.96
55466;BME280;41329;41.594;23.810;2023-04-20T11:56:38;94783.91;;;17.40;41.91
55466;BME280;41329;41.594;23.810;2023-04-20T11:59:06;94788.03;;;17.09;42.42
55466;BME280;41329;41.594;23.810;2023-04-20T12:01:32;94760.59;;;16.81;43.02
55466;BME280;41329;41.594;23.810;2023-04-20T12:03:57;94790.44;;;16.88;44.08
55466;BME280;41329;41.594;23.810;2023-04-20T12:06:26;94785.25;;;16.86;44.63
55466;BME280;41329;41.594;23.810;2023-04-20T12:08:53;94775.19;;;16.43;44.56
55466;BME280;41329;41.594;23.810;2023-04-20T12:11:19;94783.34;;;16.57;44.56
55466;BME280;41329;41.594;23.810;2023-04-20T12:13:45;94785.94;;;16.44;43.90
55466;BME280;41329;41.594;23.810;2023-04-20T12:16:10;94782.97;;;16.55;44.97
55466;BME280;41329;41.594;23.810;2023-04-20T12:18:35;94786.41;;;16.66;45.06
55466;BME280;41329;41.594;23.810;2023-04-20T12:21:01;94758.59;;;16.59;45.04
55466;BME280;41329;41.594;23.810;2023-04-20T12:23:27;94783.69;;;16.85;44.07
55466;BME280;41329;41.594;23.810;2023-04-20T12:25:52;94778.94;;;16.82;43.71
55466;BME280;41329;41.594;23.810;2023-04-20T12:28:18;94788.72;;;16.94;44.15
55466;BME280;41329;41.594;23.810;2023-04-20T12:30:43;94761.81;;;16.80;42.77
55466;BME280;41329;41.594;23.810;2023-04-20T12:33:08;94772.69;;;16.98;42.73
55466;BME280;41329;41.594;23.810;2023-04-20T12:35:34;94760.47;;;16.88;41.41
55466;BME280;41329;41.594;23.810;2023-04-20T12:38:00;94708.97;;;16.66;43.14
55466;BME280;41329;41.594;23.810;2023-04-20T12:40:25;94754.00;;;16.95;41.33
55466;BME280;41329;41.594;23.810;2023-04-20T12:42:51;94763.25;;;17.11;43.76
55466;BME280;41329;41.594;23.810;2023-04-20T12:45:16;94757.16;;;17.39;44.36
55466;BME280;41329;41.594;23.810;2023-04-20T12:47:42;94756.38;;;17.58;41.26
55466;BME280;41329;41.594;23.810;2023-04-20T12:50:08;94748.56;;;17.50;41.12
55466;BME280;41329;41.594;23.810;2023-04-20T12:52:33;94746.28;;;17.64;40.33
55466;BME280;41329;41.594;23.810;2023-04-20T12:54:59;94745.41;;;17.48;41.31
55466;BME280;41329;41.594;23.810;2023-04-20T12:57:26;94747.72;;;17.30;41.16
55466;BME280;41329;41.594;23.810;2023-04-20T12:59:51;94731.81;;;17.27;41.89
55466;BME280;41329;41.594;23.810;2023-04-20T13:02:17;94750.84;;;17.35;41.26